D/T METAR WX W/SPE G/SPE TEMP DEWP FEEL
25/05/22 01:50 EGPC 250050Z AUTO 20005KT 170V240 9999 NCD 10/08 Q0999 5.8mph 10°C 8°C 10.4°C
25/05/22 01:20 EGPC 250020Z AUTO 19006KT 9999 NCD 10/08 Q0999 6.9mph 10°C 8°C 10.4°C
25/05/22 00:50 EGPC 242350Z AUTO 19005KT 9999 NCD 10/08 Q1000 5.8mph 10°C 8°C 10.4°C
25/05/22 00:20 EGPC 242320Z AUTO 18005KT 150V210 9999 NCD 10/07 Q1000 5.8mph 10°C 7°C 10.0°C
24/05/22 23:50 EGPC 242250Z AUTO 17005KT 9999 SCT040/// BKN048/// 10/08 Q1000 5.8mph 10°C 8°C 10.4°C
24/05/22 23:20 EGPC 242220Z AUTO VRB01KT 9999 BKN031/// 09/07 Q1000 RERA 1.2mph 9°C 7°C 9.0°C
24/05/22 22:50 EGPC 242150Z AUTO VRB02KT 9999 OVC035/// 10/07 Q1001 2.3mph 10°C 7°C 10.0°C
24/05/22 22:20 EGPC 242120Z AUTO 24002KT 9999 FEW034/// SCT040/// BKN047/// 10/07 Q1001 2.3mph 10°C 7°C 10.0°C
24/05/22 21:50 EGPC 242050Z AUTO 25003KT 9999 -RA BKN030/// BKN041/// 10/07 Q1001 -RA 3.5mph 10°C 7°C 10.0°C
24/05/22 21:20 EGPC 242020Z AUTO 22003KT 180V250 9999 BKN029/// BKN039/// OVC048/// 11/06 Q1001 3.5mph 11°C 6°C 10.6°C
24/05/22 20:50 EGPC 241950Z AUTO 19004KT 9999 FEW041/// BKN049/// 11/07 Q1001 4.6mph 11°C 7°C 11.0°C
24/05/22 20:20 EGPC 241920Z AUTO 14003KT 9999 NCD 11/06 Q1000 3.5mph 11°C 6°C 10.6°C
24/05/22 19:50 EGPC 241850Z AUTO 14003KT 9999 FEW046/// 11/06 Q1000 3.5mph 11°C 6°C 10.6°C
24/05/22 19:20 EGPC 241820Z AUTO 12003KT 9999 FEW035/// 12/06 Q1000 3.5mph 12°C 6°C 11.6°C
24/05/22 18:50 EGPC 241750Z AUTO 12003KT 9999 NCD 11/06 Q1000 3.5mph 11°C 6°C 10.6°C
24/05/22 18:20 EGPC 241720Z 06003KT 020V090 9999 FEW036 12/06 Q1000 3.5mph 12°C 6°C 11.6°C
24/05/22 17:50 EGPC 241650Z 31003KT 260V010 9999 FEW032 13/04 Q1001 3.5mph 13°C 4°C 12.0°C
24/05/22 17:20 EGPC 241620Z 31006KT 260V360 9999 SCT030 14/06 Q1001 6.9mph 14°C 6°C 13.6°C
24/05/22 16:50 EGPC 241550Z 34006KT 300V020 9999 SCT030 13/06 Q1001 6.9mph 13°C 6°C 12.6°C
24/05/22 15:50 EGPC 241450Z 33009KT 9999 SCT026 14/06 Q1001 10.4mph 14°C 6°C 13.6°C
24/05/22 15:20 EGPC 241420Z 33011KT 9999 SCT026 14/06 Q1000 12.7mph 14°C 6°C 13.6°C
24/05/22 14:50 EGPC 241350Z 32011KT 9999 SCT026 14/06 Q1000 12.7mph 14°C 6°C 13.6°C
24/05/22 14:20 EGPC 241320Z 31013KT 9999 SCT026 13/06 Q1000 15.0mph 13°C 6°C 12.6°C
24/05/22 13:50 EGPC 241250Z 33011KT 9999 SCT026 13/07 Q1000 12.7mph 13°C 7°C 13.0°C
24/05/22 13:20 EGPC 241220Z 32012KT 9999 VCSH SCT026 12/07 Q1000 VCSH 13.8mph 12°C 7°C 12.0°C
24/05/22 12:50 EGPC 241150Z 33011KT 9999 VCSH SCT026 12/06 Q1000 VCSH 12.7mph 12°C 6°C 11.6°C
24/05/22 12:20 EGPC 241120Z 34008KT 9999 VCSH SCT026 12/07 Q1000 VCSH 9.2mph 12°C 7°C 12.0°C
24/05/22 11:50 EGPC 241050Z 34009KT 9999 VCSH SCT026 12/07 Q0999 VCSH 10.4mph 12°C 7°C 12.0°C
24/05/22 10:50 EGPC 240950Z 34008KT 9999 VCSH FEW020CB SCT030 11/07 Q1000 VCSH 9.2mph 11°C 7°C 11.0°C
24/05/22 10:20 EGPC 240920Z 34010KT 9999 VCSH FEW019CB SCT030 10/08 Q1000 VCSH 11.5mph 10°C 8°C 10.4°C
24/05/22 09:50 EGPC 240850Z 33008KT 9999 VCSH SCT026 BKN046 10/08 Q1000 VCSH 9.2mph 10°C 8°C 10.4°C
24/05/22 08:50 EGPC 240750Z 34008KT 9999 SCT016 BKN049 10/07 Q1000 9.2mph 10°C 7°C 10.0°C
24/05/22 08:20 EGPC 240720Z 32008KT 9999 FEW012 SCT021 10/08 Q0999 9.2mph 10°C 8°C 10.4°C
24/05/22 07:50 EGPC 240650Z 32011KT 9999 SCT012 10/08 Q0999 12.7mph 10°C 8°C 10.4°C
24/05/22 07:20 EGPC 240620Z 32007KT 9999 SCT016CB 09/08 Q0999 8.1mph 9°C 8°C 9.4°C
24/05/22 06:50 EGPC 240550Z 30005KT 9999 FEW020CB SCT048 08/07 Q0999 5.8mph 8°C 7°C 8.0°C
24/05/22 06:20 EGPC 240520Z AUTO 32005KT 9999 BKN048/// 08/07 Q0999 5.8mph 8°C 7°C 8.0°C
24/05/22 05:50 EGPC 240450Z AUTO 31007KT 9999 NCD 08/07 Q0999 8.1mph 8°C 7°C 8.0°C
24/05/22 04:50 EGPC 240350Z AUTO 31006KT 9999 NCD 08/07 Q0999 6.9mph 8°C 7°C 8.0°C
24/05/22 04:20 EGPC 240320Z AUTO 32005KT 9999 NCD 08/07 Q0999 5.8mph 8°C 7°C 8.0°C
24/05/22 03:50 EGPC 240250Z AUTO 29005KT 9999 BKN049/// 07/07 Q0999 5.8mph 7°C 7°C 7.0°C
24/05/22 03:20 EGPC 240220Z AUTO 28005KT 9999 FEW027/// SCT039/// OVC049/// 07/07 Q0999 5.8mph 7°C 7°C 7.0°C
24/05/22 02:50 EGPC 240150Z AUTO 29006KT 9999 OVC045/// 07/07 Q0999 6.9mph 7°C 7°C 7.0°C
24/05/22 02:20 EGPC 240120Z AUTO 29006KT 9999 FEW015/// 07/07 Q0999 6.9mph 7°C 7°C 7.0°C
24/05/22 01:50 EGPC 240050Z AUTO 29004KT 9999 NCD 06/06 Q0999 4.6mph 6°C 6°C 5.6°C
24/05/22 01:20 EGPC 240020Z AUTO 29004KT 9999 FEW009/// 06/06 Q0999 4.6mph 6°C 6°C 5.6°C
24/05/22 00:50 EGPC 232350Z AUTO 29005KT 9999 NCD 07/06 Q0999 5.8mph 7°C 6°C 6.6°C
24/05/22 00:20 EGPC 232320Z AUTO 29005KT 9999 NCD 08/07 Q0999 5.8mph 8°C 7°C 8.0°C
23/05/22 23:50 EGPC 232250Z AUTO 30005KT 9999 FEW030/// 08/07 Q0999 5.8mph 8°C 7°C 8.0°C
23/05/22 23:20 EGPC 232220Z AUTO 31005KT 9999 NCD 08/07 Q0999 5.8mph 8°C 7°C 8.0°C
23/05/22 22:50 EGPC 232150Z AUTO 30004KT 9999 NCD 08/07 Q0999 4.6mph 8°C 7°C 8.0°C
23/05/22 22:20 EGPC 232120Z AUTO 32003KT 9999 OVC048/// 09/08 Q0999 3.5mph 9°C 8°C 9.4°C
23/05/22 21:50 EGPC 232050Z AUTO 33003KT 9999 OVC044/// 09/08 Q0999 3.5mph 9°C 8°C 9.4°C
23/05/22 21:20 EGPC 232020Z AUTO 33004KT 9999 BKN044/// 09/08 Q0999 4.6mph 9°C 8°C 9.4°C
23/05/22 20:50 EGPC 231950Z AUTO 32006KT 9999 BKN042/// 09/07 Q0999 6.9mph 9°C 7°C 9.0°C
23/05/22 20:20 EGPC 231920Z AUTO 32005KT 9999 OVC033/// 09/08 Q0999 5.8mph 9°C 8°C 9.4°C
23/05/22 19:50 EGPC 231850Z AUTO 32004KT 9999 -RA BKN026/// OVC031/// 09/08 Q0999 -RA 4.6mph 9°C 8°C 9.4°C
23/05/22 19:20 EGPC 231820Z AUTO 33006KT 9999 OVC021/// 09/08 Q0999 6.9mph 9°C 8°C 9.4°C
23/05/22 18:50 EGPC 231750Z AUTO 34008KT 9999 BKN010/// BKN014/// OVC027/// 10/08 Q0999 9.2mph 10°C 8°C 10.4°C
23/05/22 18:20 EGPC 231720Z 35004KT 9999 SCT012 BKN022 09/08 Q0999 4.6mph 9°C 8°C 9.4°C
23/05/22 17:50 EGPC 231650Z 03005KT 9999 -DZ SCT012 BKN022 09/08 Q0999 -DZ 5.8mph 9°C 8°C 9.4°C
23/05/22 16:50 EGPC 231550Z 35007KT 9999 -DZ SCT008 BKN017 10/08 Q0999 -DZ 8.1mph 10°C 8°C 10.4°C
23/05/22 16:20 EGPC 231520Z 33009KT 9000 -DZ SCT008 BKN020 10/09 Q0999 -DZ 10.4mph 10°C 9°C 10.8°C
23/05/22 15:50 EGPC 231450Z 33009KT 9999 -DZ BKN008 BKN014 10/09 Q0999 -DZ 10.4mph 10°C 9°C 10.8°C
23/05/22 15:20 EGPC 231420Z 33009KT 6000 -DZ SCT005 BKN016 10/09 Q0999 -DZ 10.4mph 10°C 9°C 10.8°C
23/05/22 14:50 EGPC 231350Z 35006KT 6000 -DZ SCT005 BKN016 09/09 Q0999 -DZ 6.9mph 9°C 9°C 9.8°C
23/05/22 14:20 EGPC 231320Z 33004KT 6000 -DZ SCT005 BKN016 10/09 Q0999 -DZ 4.6mph 10°C 9°C 10.8°C
23/05/22 13:50 EGPC 231250Z 03005KT 6000 -DZ SCT005 BKN016 10/09 Q0999 -DZ 5.8mph 10°C 9°C 10.8°C
23/05/22 13:20 EGPC 231220Z 02004KT 4000 -DZ SCT005 BKN013 09/08 Q0999 -DZ 4.6mph 9°C 8°C 9.4°C
23/05/22 12:50 EGPC 231150Z 35003KT 5000 -DZ SCT004 BKN007 09/09 Q0999 -DZ 3.5mph 9°C 9°C 9.8°C
23/05/22 12:20 EGPC 231120Z 35005KT 5000 -DZ SCT006 BKN013 10/09 Q0999 -DZ 5.8mph 10°C 9°C 10.8°C
23/05/22 11:50 EGPC 231050Z 01006KT 5000 -DZ SCT006 BKN013 10/08 Q0999 -DZ 6.9mph 10°C 8°C 10.4°C
23/05/22 11:20 EGPC 231020Z 05003KT 7000 -DZ FEW005 BKN014 10/08 Q0999 -DZ 3.5mph 10°C 8°C 10.4°C
23/05/22 10:20 EGPC 230920Z 06004KT 9999 FEW005 OVC015 10/08 Q0999 4.6mph 10°C 8°C 10.4°C
23/05/22 09:50 EGPC 230850Z 04003KT 010V080 9999 FEW005 BKN012 10/08 Q0999 3.5mph 10°C 8°C 10.4°C
23/05/22 09:20 EGPC 230820Z 02003KT 9999 FEW005 BKN010 10/08 Q0999 3.5mph 10°C 8°C 10.4°C
23/05/22 08:50 EGPC 230750Z 02004KT 9999 FEW005 BKN010 10/08 Q0999 4.6mph 10°C 8°C 10.4°C
23/05/22 07:50 EGPC 230650Z 34005KT 9999 SCT005 BKN010 10/09 Q0999 5.8mph 10°C 9°C 10.8°C
23/05/22 07:20 EGPC 230620Z 33006KT 9999 SCT005 BKN018 10/09 Q0999 6.9mph 10°C 9°C 10.8°C
23/05/22 06:50 EGPC 230550Z 33005KT 9999 FEW006 BKN020 10/09 Q0999 5.8mph 10°C 9°C 10.8°C
23/05/22 06:20 EGPC 230520Z AUTO 32005KT 9999 BKN015/// BKN020/// OVC044/// 09/09 Q0998 5.8mph 9°C 9°C 9.8°C
23/05/22 05:50 EGPC 230450Z AUTO 31005KT 9999 FEW008/// BKN013/// BKN020/// 09/09 Q0998 5.8mph 9°C 9°C 9.8°C
23/05/22 05:20 EGPC 230420Z AUTO 32005KT 9999 BKN006/// OVC011/// 09/09 Q0998 5.8mph 9°C 9°C 9.8°C
23/05/22 04:50 EGPC 230350Z AUTO 32005KT 9999 BKN005/// OVC009/// 09/09 Q0998 5.8mph 9°C 9°C 9.8°C
23/05/22 04:20 EGPC 230320Z AUTO 31006KT 6000 OVC003/// 09/09 Q0998 6.9mph 9°C 9°C 9.8°C
23/05/22 03:50 EGPC 230250Z AUTO 30005KT 7000 BKN003/// OVC007/// 09/09 Q0999 5.8mph 9°C 9°C 9.8°C
23/05/22 03:20 EGPC 230220Z AUTO 30006KT 2400 BR OVC001/// 09/09 Q0999 BR 6.9mph 9°C 9°C 9.8°C
23/05/22 02:50 EGPC 230150Z AUTO 30008KT 2400 BR OVC002/// 09/09 Q0999 BR 9.2mph 9°C 9°C 9.8°C
23/05/22 02:20 EGPC 230120Z AUTO 30008KT 3200 BR BKN001/// OVC007/// 09/09 Q0999 BR 9.2mph 9°C 9°C 9.8°C
23/05/22 01:50 EGPC 230050Z AUTO 30009KT 1000 BR OVC002/// 09/09 Q0999 BR 10.4mph 9°C 9°C 9.8°C
23/05/22 01:20 EGPC 230020Z AUTO 29007KT 0750 FG BKN001/// OVC008/// 10/10 Q0999 FG 8.1mph 10°C 10°C 11.3°C
23/05/22 00:50 EGPC 222350Z AUTO 29008KT 9999 BKN002/// BKN005/// OVC009/// 10/10 Q0999 9.2mph 10°C 10°C 11.3°C
23/05/22 00:20 EGPC 222320Z AUTO 29007KT 9999 BKN002/// OVC006/// 10/10 Q0999 8.1mph 10°C 10°C 11.3°C
22/05/22 23:50 EGPC 222250Z AUTO 31004KT 9999 -RA FEW044/// 11/10 Q0998 -RA 4.6mph 11°C 10°C 12.3°C
22/05/22 22:50 EGPC 222150Z AUTO 29005KT 9999 FEW004/// BKN012/// BKN022/// 11/10 Q0999 5.8mph 11°C 10°C 12.3°C
22/05/22 22:20 EGPC 222120Z AUTO 29004KT 9999 -RA SCT010/// 11/11 Q0999 -RA 4.6mph 11°C 11°C 12.8°C